Time;durP1;ratioP1;P1;durP2;ratioP2;P2;SDS_P1;SDS_P2;PMS_P1;PMS_P2;Temp;Humidity;BMP_temperature;BMP_pressure;BME280_temperature;BME280_humidity;BME280_pressure;Samples;Min_cycle;Max_cycle;Signal;HPM_P1;HPM_P2
2023/10/16 00:02:13;;;;;;;;;;;10.30;68.20;;;;;;5023029;28;19912;-84
2023/10/16 00:04:45;;;;;;;;;;;10.20;68.50;;;;;;5024075;28;19936;-82
2023/10/16 00:07:14;;;;;;;;;;;10.30;68.00;;;;;;5024079;28;19991;-80
2023/10/16 00:09:40;;;;;;;;;;;10.30;67.80;;;;;;5023541;28;19909;-80
2023/10/16 00:12:07;;;;;;;;;;;10.20;68.80;;;;;;5023992;28;19913;-81
2023/10/16 00:14:35;;;;;;;;;;;10.20;69.00;;;;;;5024023;28;19916;-81
2023/10/16 00:17:03;;;;;;;;;;;10.10;69.10;;;;;;5022594;28;19909;-81
2023/10/16 00:19:33;;;;;;;;;;;10.00;69.80;;;;;;5044494;28;19914;-82
2023/10/16 00:22:00;;;;;;;;;;;10.00;69.80;;;;;;5025180;28;19913;-82
2023/10/16 00:24:26;;;;;;;;;;;10.10;69.30;;;;;;5023968;28;20677;-81
2023/10/16 00:26:51;;;;;;;;;;;10.10;68.90;;;;;;5023731;28;20011;-81
2023/10/16 00:29:17;;;;;;;;;;;10.10;68.80;;;;;;5024331;28;19913;-82
2023/10/16 00:31:43;;;;;;;;;;;10.10;69.20;;;;;;5023845;28;20388;-83
2023/10/16 00:34:09;;;;;;;;;;;10.00;69.20;;;;;;5024248;28;19956;-83
2023/10/16 00:36:34;;;;;;;;;;;10.00;69.00;;;;;;5023808;28;20036;-80
2023/10/16 00:39:12;;;;;;;;;;;10.00;68.80;;;;;;5024042;28;19963;-81
2023/10/16 00:41:38;;;;;;;;;;;10.00;68.70;;;;;;5024201;28;19909;-83
2023/10/16 00:44:04;;;;;;;;;;;10.00;68.60;;;;;;5043614;28;19940;-83
2023/10/16 00:46:32;;;;;;;;;;;10.00;68.50;;;;;;5022302;28;19917;-80
2023/10/16 00:48:58;;;;;;;;;;;10.00;68.80;;;;;;5023289;28;19995;-81
2023/10/16 00:51:24;;;;;;;;;;;10.00;69.00;;;;;;5022985;28;19924;-82
2023/10/16 00:53:51;;;;;;;;;;;9.90;69.30;;;;;;5022908;28;20281;-79
2023/10/16 00:56:18;;;;;;;;;;;9.90;69.10;;;;;;5023247;28;20280;-80
2023/10/16 00:58:47;;;;;;;;;;;9.80;69.70;;;;;;5023127;28;20727;-81
2023/10/16 01:01:13;;;;;;;;;;;9.70;70.20;;;;;;5022907;28;20590;-82
2023/10/16 01:03:40;;;;;;;;;;;9.50;71.30;;;;;;5022107;28;19913;-79
2023/10/16 01:06:16;;;;;;;;;;;9.50;71.50;;;;;;5023761;28;20566;-80
2023/10/16 01:08:45;;;;;;;;;;;9.50;71.70;;;;;;5021722;28;20001;-80
2023/10/16 01:11:14;;;;;;;;;;;9.30;72.40;;;;;;5023354;28;19913;-80
2023/10/16 01:13:40;;;;;;;;;;;9.30;72.80;;;;;;5023611;28;19941;-79
2023/10/16 01:16:07;;;;;;;;;;;9.20;73.30;;;;;;5018234;28;19913;-80
2023/10/16 01:18:34;;;;;;;;;;;9.20;73.70;;;;;;5023164;28;20649;-81
2023/10/16 01:21:04;;;;;;;;;;;9.20;73.90;;;;;;5022517;28;19913;-82
2023/10/16 01:23:31;;;;;;;;;;;9.20;74.10;;;;;;5025503;28;19913;-80
2023/10/16 01:25:58;;;;;;;;;;;9.10;74.90;;;;;;5025744;28;20323;-80
2023/10/16 01:28:24;;;;;;;;;;;9.10;74.70;;;;;;5025156;28;19919;-80
2023/10/16 01:30:49;;;;;;;;;;;9.00;74.90;;;;;;5026781;28;19917;-80
2023/10/16 01:33:16;;;;;;;;;;;9.00;75.10;;;;;;5031399;28;19959;-82
2023/10/16 01:35:45;;;;;;;;;;;9.00;75.30;;;;;;5029188;28;19939;-79
2023/10/16 01:38:17;;;;;;;;;;;8.90;75.30;;;;;;5023557;28;20179;-79
2023/10/16 01:41:04;;;;;;;;;;;8.90;75.30;;;;;;5025685;28;19924;-81
2023/10/16 01:43:31;;;;;;;;;;;8.90;75.50;;;;;;5022537;28;19954;-80
2023/10/16 01:46:08;;;;;;;;;;;8.90;75.30;;;;;;5027031;28;20507;-80
2023/10/16 01:48:38;;;;;;;;;;;8.90;75.30;;;;;;5026867;28;20420;-81
2023/10/16 01:51:05;;;;;;;;;;;8.90;74.80;;;;;;5026877;28;20377;-83
2023/10/16 01:53:36;;;;;;;;;;;8.80;75.60;;;;;;5013594;28;20383;-81
2023/10/16 01:56:12;;;;;;;;;;;8.70;75.70;;;;;;5026630;28;19913;-81
2023/10/16 01:58:38;;;;;;;;;;;8.70;75.30;;;;;;5026680;28;19909;-82
2023/10/16 02:01:04;;;;;;;;;;;8.80;75.10;;;;;;5026326;28;19920;-82
2023/10/16 02:03:29;;;;;;;;;;;8.70;75.50;;;;;;5026769;28;19935;-80
2023/10/16 02:05:55;;;;;;;;;;;8.70;75.50;;;;;;5041120;28;19917;-81
2023/10/16 02:08:21;;;;;;;;;;;8.70;75.40;;;;;;5024815;28;19920;-81
2023/10/16 02:10:48;;;;;;;;;;;8.70;75.50;;;;;;5025780;28;21734;-80
2023/10/16 02:13:14;;;;;;;;;;;8.50;76.00;;;;;;5024417;28;19968;-81
2023/10/16 02:15:39;;;;;;;;;;;8.50;76.40;;;;;;5026250;28;20349;-81
2023/10/16 02:18:40;;;;;;;;;;;8.50;76.30;;;;;;5026509;28;20553;-81
2023/10/16 02:20:58;;;;;;;;;;;8.60;75.70;;;;;;5016019;28;20436;-82
2023/10/16 02:23:29;;;;;;;;;;;8.50;76.50;;;;;;5026620;28;19913;-80
2023/10/16 02:25:59;;;;;;;;;;;8.50;76.60;;;;;;5026002;28;19924;-80
2023/10/16 02:28:25;;;;;;;;;;;8.60;75.70;;;;;;5027867;28;19951;-80
2023/10/16 02:30:51;;;;;;;;;;;8.60;76.00;;;;;;5021770;28;19916;-82
2023/10/16 02:33:26;;;;;;;;;;;8.40;76.90;;;;;;5029184;28;20036;-83
2023/10/16 02:35:53;;;;;;;;;;;8.50;76.50;;;;;;5019117;28;19908;-83
2023/10/16 02:38:23;;;;;;;;;;;8.40;76.80;;;;;;5030319;28;20375;-86
2023/10/16 02:40:52;;;;;;;;;;;8.40;77.00;;;;;;5036152;28;20015;-82
2023/10/16 02:43:20;;;;;;;;;;;8.50;76.80;;;;;;5029356;28;19909;-84
2023/10/16 02:45:47;;;;;;;;;;;8.50;76.80;;;;;;5020067;28;20673;-84
2023/10/16 02:48:16;;;;;;;;;;;8.50;77.00;;;;;;5028660;28;20723;-87
2023/10/16 02:50:49;;;;;;;;;;;8.40;77.30;;;;;;5035899;28;19916;-83
2023/10/16 02:53:22;;;;;;;;;;;8.40;77.50;;;;;;5025946;28;19906;-84
2023/10/16 02:55:57;;;;;;;;;;;8.30;78.00;;;;;;5014434;28;19909;-81
2023/10/16 02:58:28;;;;;;;;;;;8.30;78.60;;;;;;5023833;28;19990;-81
2023/10/16 03:00:55;;;;;;;;;;;8.20;78.60;;;;;;5025650;28;19917;-83
2023/10/16 03:03:27;;;;;;;;;;;8.20;79.10;;;;;;5026321;28;19988;-82
2023/10/16 03:05:53;;;;;;;;;;;8.10;79.00;;;;;;5026459;28;19947;-82
2023/10/16 03:08:21;;;;;;;;;;;8.10;79.30;;;;;;5029579;28;19963;-84
2023/10/16 03:10:47;;;;;;;;;;;8.20;79.10;;;;;;5026802;28;20746;-80
2023/10/16 03:13:14;;;;;;;;;;;8.10;78.90;;;;;;5024971;28;20004;-81
2023/10/16 03:15:46;;;;;;;;;;;8.20;78.60;;;;;;5024170;28;19909;-82
2023/10/16 03:18:22;;;;;;;;;;;8.20;78.50;;;;;;5023698;28;20019;-82
2023/10/16 03:20:48;;;;;;;;;;;8.20;78.30;;;;;;5025122;28;19940;-82
2023/10/16 03:23:14;;;;;;;;;;;8.20;78.50;;;;;;5023461;28;19913;-83
2023/10/16 03:28:08;;;;;;;;;;;8.20;78.20;;;;;;5025364;28;20015;-82
2023/10/16 03:30:34;;;;;;;;;;;8.20;78.30;;;;;;5025303;28;20007;-84
2023/10/16 03:33:00;;;;;;;;;;;8.10;78.60;;;;;;5024941;28;19909;-83
2023/10/16 03:35:26;;;;;;;;;;;8.10;78.80;;;;;;5024297;28;19909;-82
2023/10/16 03:37:52;;;;;;;;;;;8.10;78.70;;;;;;5025061;28;19915;-82
2023/10/16 03:40:19;;;;;;;;;;;8.10;78.50;;;;;;5024680;28;19920;-82
2023/10/16 03:42:48;;;;;;;;;;;8.20;78.50;;;;;;5024441;28;19931;-82
2023/10/16 03:45:14;;;;;;;;;;;8.10;78.30;;;;;;5024483;28;19996;-82
2023/10/16 03:47:39;;;;;;;;;;;8.10;78.50;;;;;;5025047;28;19917;-82
2023/10/16 03:50:06;;;;;;;;;;;8.10;78.80;;;;;;5023760;28;20047;-83
2023/10/16 03:52:33;;;;;;;;;;;8.10;79.00;;;;;;5022737;28;20616;-83
2023/10/16 03:55:10;;;;;;;;;;;8.10;79.00;;;;;;5019006;28;19909;-84
2023/10/16 03:57:35;;;;;;;;;;;8.00;79.00;;;;;;5020715;28;20392;-83
2023/10/16 04:00:01;;;;;;;;;;;8.00;79.20;;;;;;5024379;28;19916;-83
2023/10/16 04:02:31;;;;;;;;;;;8.00;79.60;;;;;;5024817;28;19909;-82
2023/10/16 04:04:58;;;;;;;;;;;7.90;79.40;;;;;;5024086;28;20400;-81
2023/10/16 04:07:23;;;;;;;;;;;7.90;79.60;;;;;;5024152;28;19921;-80
2023/10/16 04:09:49;;;;;;;;;;;7.90;80.20;;;;;;5024506;28;19909;-83
2023/10/16 04:12:17;;;;;;;;;;;7.90;80.10;;;;;;5030234;28;19912;-80
2023/10/16 04:14:45;;;;;;;;;;;7.80;80.70;;;;;;5026929;28;19909;-80
2023/10/16 04:17:13;;;;;;;;;;;7.70;80.90;;;;;;5024602;28;20328;-80
2023/10/16 04:19:59;;;;;;;;;;;7.70;81.30;;;;;;5022426;28;19916;-82
2023/10/16 04:22:27;;;;;;;;;;;7.60;81.50;;;;;;5017363;28;19913;-81
2023/10/16 04:24:55;;;;;;;;;;;7.60;82.00;;;;;;5023264;28;19952;-82
2023/10/16 04:29:49;;;;;;;;;;;7.60;82.20;;;;;;5023580;28;19913;-86
2023/10/16 04:37:49;;;;;;;;;;;7.60;81.60;;;;;;5017271;28;19987;-79
2023/10/16 04:42:50;;;;;;;;;;;7.70;81.20;;;;;;5019484;28;19987;-79
2023/10/16 04:47:56;;;;;;;;;;;7.70;80.30;;;;;;5023787;28;19913;-81
2023/10/16 04:50:37;;;;;;;;;;;7.70;80.50;;;;;;5013006;28;20287;-79
2023/10/16 05:00:57;;;;;;;;;;;7.70;80.60;;;;;;5020492;28;19913;-79
2023/10/16 05:09:53;;;;;;;;;;;7.50;81.40;;;;;;5022144;28;20022;-79
2023/10/16 05:17:58;;;;;;;;;;;7.30;82.40;;;;;;5022000;28;19967;-81
2023/10/16 06:15:01;;;;;;;;;;;7.40;80.80;;;;;;5020833;28;20359;-81
2023/10/16 06:17:27;;;;;;;;;;;7.30;81.40;;;;;;5025413;28;19917;-81
2023/10/16 06:19:53;;;;;;;;;;;7.30;81.20;;;;;;5021282;28;19913;-82
2023/10/16 06:22:19;;;;;;;;;;;7.40;81.20;;;;;;5020553;28;20371;-80
2023/10/16 06:24:46;;;;;;;;;;;7.30;81.40;;;;;;5025197;28;19932;-78
2023/10/16 06:27:18;;;;;;;;;;;7.20;81.90;;;;;;5016953;28;19917;-80
2023/10/16 06:29:50;;;;;;;;;;;7.20;82.20;;;;;;5021839;28;20309;-80
2023/10/16 06:32:19;;;;;;;;;;;7.20;82.50;;;;;;5026323;28;19948;-80
2023/10/16 06:34:48;;;;;;;;;;;7.20;82.50;;;;;;5012821;28;19967;-80
2023/10/16 06:37:21;;;;;;;;;;;7.30;82.30;;;;;;5025715;28;19909;-80
2023/10/16 06:39:47;;;;;;;;;;;7.20;82.50;;;;;;5025583;28;19909;-80
2023/10/16 06:42:19;;;;;;;;;;;7.20;82.60;;;;;;5025359;28;19909;-80
2023/10/16 06:44:53;;;;;;;;;;;7.20;82.70;;;;;;5054503;28;19913;-80
2023/10/16 06:47:35;;;;;;;;;;;7.20;82.80;;;;;;5025782;28;19921;-80
2023/10/16 06:52:54;;;;;;;;;;;7.20;83.20;;;;;;5025256;28;20599;-80
2023/10/16 06:55:21;;;;;;;;;;;7.20;83.40;;;;;;5017039;28;19963;-80
2023/10/16 06:57:46;;;;;;;;;;;7.30;83.60;;;;;;5025996;28;19917;-81
2023/10/16 07:02:56;;;;;;;;;;;7.40;83.10;;;;;;5025314;28;19913;-80
2023/10/16 07:05:23;;;;;;;;;;;7.50;83.30;;;;;;5025067;28;19917;-80
2023/10/16 07:07:49;;;;;;;;;;;7.50;83.00;;;;;;5023702;28;19909;-80
2023/10/16 07:10:14;;;;;;;;;;;7.60;82.50;;;;;;5022708;28;19974;-80
2023/10/16 07:15:26;;;;;;;;;;;7.80;81.70;;;;;;5014581;28;19920;-80
2023/10/16 07:17:51;;;;;;;;;;;7.90;81.50;;;;;;5033768;28;19909;-80
2023/10/16 07:20:30;;;;;;;;;;;8.40;80.00;;;;;;5013517;28;19915;-80
2023/10/16 07:22:59;;;;;;;;;;;8.80;77.90;;;;;;5021794;28;19909;-80
2023/10/16 07:25:27;;;;;;;;;;;8.70;77.90;;;;;;5023096;28;20417;-81
2023/10/16 07:27:59;;;;;;;;;;;8.40;78.90;;;;;;5020968;28;19909;-80
2023/10/16 07:30:25;;;;;;;;;;;8.60;78.50;;;;;;5025135;28;20336;-80
2023/10/16 07:32:51;;;;;;;;;;;8.70;78.30;;;;;;5019091;28;19913;-80
2023/10/16 07:35:21;;;;;;;;;;;9.10;77.50;;;;;;5027322;28;20458;-80
2023/10/16 07:37:53;;;;;;;;;;;8.80;78.20;;;;;;5024472;28;20013;-80
2023/10/16 07:40:25;;;;;;;;;;;8.60;78.40;;;;;;5023103;28;20697;-80
2023/10/16 07:42:52;;;;;;;;;;;8.60;78.80;;;;;;5023304;28;19920;-80
2023/10/16 07:45:19;;;;;;;;;;;8.60;78.60;;;;;;5023220;28;19960;-80
2023/10/16 07:47:47;;;;;;;;;;;8.60;78.30;;;;;;5018559;28;19921;-80
2023/10/16 07:50:12;;;;;;;;;;;8.70;78.50;;;;;;5024396;28;19920;-80
2023/10/16 07:52:41;;;;;;;;;;;8.90;78.30;;;;;;5021098;28;19996;-81
2023/10/16 07:55:09;;;;;;;;;;;9.50;76.30;;;;;;5019513;28;19913;-80
2023/10/16 07:57:35;;;;;;;;;;;10.10;75.40;;;;;;5024309;28;19909;-80
2023/10/16 08:00:13;;;;;;;;;;;10.00;74.00;;;;;;5024063;28;19983;-80
2023/10/16 08:02:44;;;;;;;;;;;9.80;74.90;;;;;;5024184;28;19905;-80
2023/10/16 08:05:16;;;;;;;;;;;9.70;75.10;;;;;;5024340;28;20553;-80
2023/10/16 08:07:47;;;;;;;;;;;9.70;74.90;;;;;;5023940;28;19913;-80
2023/10/16 08:13:07;;;;;;;;;;;11.00;71.90;;;;;;5024280;28;19940;-80
2023/10/16 08:15:44;;;;;;;;;;;11.00;70.10;;;;;;5015324;28;19959;-80
2023/10/16 08:18:13;;;;;;;;;;;10.60;71.20;;;;;;5024492;28;19966;-80
2023/10/16 08:23:38;;;;;;;;;;;11.30;69.10;;;;;;5018063;28;19909;-80
2023/10/16 08:31:47;;;;;;;;;;;11.10;69.60;;;;;;5011041;28;19905;-81
2023/10/16 08:34:14;;;;;;;;;;;11.20;69.10;;;;;;5024374;28;19909;-80
2023/10/16 08:36:41;;;;;;;;;;;11.80;68.20;;;;;;5023295;28;19909;-80
2023/10/16 08:39:09;;;;;;;;;;;11.40;68.60;;;;;;5023242;28;20567;-80
2023/10/16 08:42:18;;;;;;;;;;;11.70;67.90;;;;;;5022354;28;20485;-80
2023/10/16 08:44:28;;;;;;;;;;;11.90;68.10;;;;;;5021922;28;19909;-80
2023/10/16 08:49:23;;;;;;;;;;;13.40;65.30;;;;;;5024136;28;20011;-80
2023/10/16 08:51:54;;;;;;;;;;;13.80;64.10;;;;;;5024600;28;19929;-80
2023/10/16 08:57:10;;;;;;;;;;;15.50;62.20;;;;;;5023356;28;20051;-81
2023/10/16 08:59:36;;;;;;;;;;;15.20;60.20;;;;;;5022706;28;19916;-80
2023/10/16 09:02:06;;;;;;;;;;;14.40;60.40;;;;;;5022881;28;19909;-81
2023/10/16 09:04:33;;;;;;;;;;;13.30;62.80;;;;;;5023336;28;19978;-81
2023/10/16 09:06:59;;;;;;;;;;;12.90;63.20;;;;;;5022523;28;19929;-80
2023/10/16 09:09:28;;;;;;;;;;;12.70;65.00;;;;;;5054544;28;19916;-80
2023/10/16 09:12:01;;;;;;;;;;;13.20;64.60;;;;;;5022977;28;19991;-80
2023/10/16 09:14:27;;;;;;;;;;;14.80;62.50;;;;;;5021648;28;20419;-80
2023/10/16 09:16:55;;;;;;;;;;;16.00;58.70;;;;;;5023188;28;19916;-80
2023/10/16 09:19:32;;;;;;;;;;;16.20;57.00;;;;;;5022711;28;19909;-80
2023/10/16 09:21:58;;;;;;;;;;;15.90;57.50;;;;;;5022650;28;19916;-80
2023/10/16 09:24:24;;;;;;;;;;;15.70;56.80;;;;;;5023583;28;19909;-80
2023/10/16 09:26:54;;;;;;;;;;;15.70;58.40;;;;;;5022672;28;19924;-80
2023/10/16 09:29:23;;;;;;;;;;;15.50;56.60;;;;;;5026451;28;19909;-80
2023/10/16 09:31:49;;;;;;;;;;;15.60;57.20;;;;;;5022956;28;19909;-80
2023/10/16 09:34:18;;;;;;;;;;;15.70;56.70;;;;;;5023324;28;19909;-80
2023/10/16 09:36:48;;;;;;;;;;;15.20;57.80;;;;;;5023157;28;19909;-81
2023/10/16 09:39:17;;;;;;;;;;;15.20;58.40;;;;;;5023387;28;19913;-80
2023/10/16 09:41:46;;;;;;;;;;;15.00;58.20;;;;;;5022968;28;19929;-80
2023/10/16 09:44:22;;;;;;;;;;;15.00;58.20;;;;;;5025938;28;19909;-80
2023/10/16 09:49:14;;;;;;;;;;;14.90;59.10;;;;;;5027117;28;20771;-80
2023/10/16 09:51:40;;;;;;;;;;;15.10;58.60;;;;;;5026595;28;19916;-80
2023/10/16 09:54:13;;;;;;;;;;;15.70;58.60;;;;;;5026985;28;19905;-81
2023/10/16 09:56:44;;;;;;;;;;;15.70;58.40;;;;;;5026919;28;20455;-81
2023/10/16 09:59:17;;;;;;;;;;;15.90;58.30;;;;;;5015400;28;19913;-81
2023/10/16 10:01:43;;;;;;;;;;;15.80;57.80;;;;;;5026718;28;20395;-81
2023/10/16 10:04:11;;;;;;;;;;;16.30;59.90;;;;;;5026764;28;19909;-81
2023/10/16 10:06:39;;;;;;;;;;;16.30;57.10;;;;;;5024693;28;19913;-81
2023/10/16 10:14:29;;;;;;;;;;;16.60;56.80;;;;;;5027005;28;19956;-81
2023/10/16 10:16:56;;;;;;;;;;;16.60;55.50;;;;;;5026326;28;19905;-81
2023/10/16 10:19:54;;;;;;;;;;;16.70;55.70;;;;;;5026923;28;19913;-81
2023/10/16 10:22:22;;;;;;;;;;;16.80;55.90;;;;;;5017532;28;20336;-80
2023/10/16 10:24:51;;;;;;;;;;;16.90;57.00;;;;;;5027141;28;20686;-81
2023/10/16 10:27:17;;;;;;;;;;;16.90;56.20;;;;;;5026151;28;19928;-81
2023/10/16 10:29:48;;;;;;;;;;;16.90;57.30;;;;;;5026617;28;20634;-81
2023/10/16 10:32:14;;;;;;;;;;;16.90;57.60;;;;;;5026428;28;19991;-82
2023/10/16 10:34:42;;;;;;;;;;;17.10;58.00;;;;;;5025979;28;20003;-81
2023/10/16 10:37:29;;;;;;;;;;;16.90;56.00;;;;;;5025736;28;20883;-81
2023/10/16 10:40:14;;;;;;;;;;;16.90;57.40;;;;;;5026070;28;19908;-81
2023/10/16 10:42:41;;;;;;;;;;;17.00;57.60;;;;;;5019708;28;19913;-81
2023/10/16 10:45:20;;;;;;;;;;;17.00;57.90;;;;;;5019909;28;19916;-81
2023/10/16 10:47:46;;;;;;;;;;;17.00;56.30;;;;;;5020046;28;19916;-80
2023/10/16 10:50:13;;;;;;;;;;;17.10;56.30;;;;;;5026512;28;19913;-81
2023/10/16 10:52:39;;;;;;;;;;;16.90;56.00;;;;;;5024224;28;20398;-81
2023/10/16 10:55:18;;;;;;;;;;;17.00;56.90;;;;;;5024511;28;19913;-80
2023/10/16 10:57:55;;;;;;;;;;;16.90;56.80;;;;;;5023956;28;19913;-80
2023/10/16 11:02:52;;;;;;;;;;;17.20;58.10;;;;;;5025683;28;19905;-80
2023/10/16 11:05:51;;;;;;;;;;;17.40;58.00;;;;;;5025320;28;19909;-81
2023/10/16 11:10:44;;;;;;;;;;;17.30;58.20;;;;;;5025919;28;19991;-81
2023/10/16 11:13:10;;;;;;;;;;;17.40;58.10;;;;;;5024223;28;20008;-81
2023/10/16 11:15:36;;;;;;;;;;;17.30;59.70;;;;;;5025796;28;19909;-81
2023/10/16 11:18:11;;;;;;;;;;;17.40;59.40;;;;;;5025294;28;20308;-81
2023/10/16 11:20:37;;;;;;;;;;;17.40;58.50;;;;;;5025312;28;19905;-81
2023/10/16 11:23:12;;;;;;;;;;;17.50;58.10;;;;;;5025554;28;19909;-81
2023/10/16 11:25:45;;;;;;;;;;;17.60;59.10;;;;;;5024998;28;20019;-82
2023/10/16 11:28:37;;;;;;;;;;;17.60;59.10;;;;;;5022295;28;19917;-81
2023/10/16 11:31:09;;;;;;;;;;;17.80;59.10;;;;;;5024888;28;19909;-81
2023/10/16 11:33:44;;;;;;;;;;;18.20;57.50;;;;;;5015895;28;20007;-81
2023/10/16 11:36:13;;;;;;;;;;;18.00;54.70;;;;;;5019574;28;19909;-81
2023/10/16 11:38:39;;;;;;;;;;;18.10;52.70;;;;;;5024696;28;19952;-82
2023/10/16 11:41:05;;;;;;;;;;;17.90;53.70;;;;;;5024956;28;20047;-81
2023/10/16 11:43:39;;;;;;;;;;;17.70;53.10;;;;;;5024483;28;20043;-81
2023/10/16 11:46:27;;;;;;;;;;;17.70;52.50;;;;;;5024128;28;19928;-81
2023/10/16 11:48:56;;;;;;;;;;;18.10;55.40;;;;;;5024368;28;19917;-80
2023/10/16 11:51:23;;;;;;;;;;;18.30;56.60;;;;;;5024545;28;19916;-80
2023/10/16 11:53:49;;;;;;;;;;;18.10;57.20;;;;;;5011198;28;20460;-81
2023/10/16 11:56:18;;;;;;;;;;;17.80;55.70;;;;;;5024204;28;19951;-81
2023/10/16 11:58:44;;;;;;;;;;;17.70;57.30;;;;;;5024147;28;19909;-81
2023/10/16 12:01:09;;;;;;;;;;;17.70;57.90;;;;;;5024269;28;20385;-81
2023/10/16 12:03:44;;;;;;;;;;;18.20;57.50;;;;;;5024184;28;20724;-81
2023/10/16 12:06:12;;;;;;;;;;;18.10;57.40;;;;;;5023576;28;19917;-81
2023/10/16 12:08:40;;;;;;;;;;;17.80;55.70;;;;;;5024289;28;19912;-82
2023/10/16 12:11:13;;;;;;;;;;;17.80;55.60;;;;;;5023829;28;20670;-81
2023/10/16 12:13:40;;;;;;;;;;;17.50;54.20;;;;;;5022844;28;19998;-81
2023/10/16 12:16:06;;;;;;;;;;;17.60;50.40;;;;;;5023893;28;19908;-82
2023/10/16 12:18:31;;;;;;;;;;;17.70;52.00;;;;;;5024749;28;19915;-81
2023/10/16 12:21:06;;;;;;;;;;;17.70;52.90;;;;;;5023956;28;19991;-81
2023/10/16 12:23:36;;;;;;;;;;;17.70;50.20;;;;;;5029344;28;19947;-81
2023/10/16 12:26:03;;;;;;;;;;;17.90;53.10;;;;;;5027540;28;19951;-81
2023/10/16 12:28:30;;;;;;;;;;;18.10;57.20;;;;;;5027335;28;19909;-80
2023/10/16 12:30:57;;;;;;;;;;;18.10;54.20;;;;;;5023663;28;19996;-81
2023/10/16 12:33:25;;;;;;;;;;;18.20;52.70;;;;;;5024098;28;19995;-81
2023/10/16 12:35:54;;;;;;;;;;;18.40;46.40;;;;;;5023675;28;19919;-81
2023/10/16 12:38:20;;;;;;;;;;;18.00;47.80;;;;;;5024130;28;19909;-81
2023/10/16 12:40:46;;;;;;;;;;;18.30;48.20;;;;;;5023724;28;19924;-81
2023/10/16 12:43:11;;;;;;;;;;;18.50;48.70;;;;;;5023479;28;20343;-81
2023/10/16 12:45:40;;;;;;;;;;;18.20;47.50;;;;;;5023052;28;19917;-80
2023/10/16 12:48:07;;;;;;;;;;;18.60;47.70;;;;;;5024092;28;19913;-82
2023/10/16 12:50:32;;;;;;;;;;;18.50;47.50;;;;;;5022987;28;19909;-80
2023/10/16 12:52:58;;;;;;;;;;;18.10;46.80;;;;;;5018601;28;19921;-82
2023/10/16 12:55:24;;;;;;;;;;;18.40;46.00;;;;;;5020422;28;20415;-81
2023/10/16 12:57:50;;;;;;;;;;;18.30;43.80;;;;;;5023368;28;19921;-80
2023/10/16 13:00:17;;;;;;;;;;;18.00;43.90;;;;;;5013782;28;20003;-81
2023/10/16 13:02:43;;;;;;;;;;;17.90;44.60;;;;;;5022945;28;19959;-81
2023/10/16 13:05:13;;;;;;;;;;;18.00;44.80;;;;;;5023076;28;19916;-81
2023/10/16 13:07:41;;;;;;;;;;;18.60;45.00;;;;;;5022950;28;19913;-81
2023/10/16 13:10:08;;;;;;;;;;;18.80;43.30;;;;;;5021821;28;19958;-80
2023/10/16 13:12:36;;;;;;;;;;;18.40;41.90;;;;;;5023148;28;19920;-82
2023/10/16 13:15:03;;;;;;;;;;;18.30;42.60;;;;;;5021619;28;19917;-81
2023/10/16 13:17:29;;;;;;;;;;;18.40;42.80;;;;;;5023123;28;19909;-80
2023/10/16 13:19:55;;;;;;;;;;;18.40;43.30;;;;;;5051746;28;19916;-81
2023/10/16 13:22:20;;;;;;;;;;;18.40;42.30;;;;;;5027372;28;19909;-80
2023/10/16 13:24:46;;;;;;;;;;;18.20;41.80;;;;;;5026784;28;19915;-80
2023/10/16 13:27:11;;;;;;;;;;;18.20;42.50;;;;;;5027588;28;20414;-80
2023/10/16 13:29:40;;;;;;;;;;;18.30;42.50;;;;;;5027386;28;20023;-80
2023/10/16 13:32:09;;;;;;;;;;;18.20;43.30;;;;;;5027401;28;19956;-81
2023/10/16 13:34:36;;;;;;;;;;;18.30;43.70;;;;;;5026456;28;19913;-81
2023/10/16 13:37:08;;;;;;;;;;;18.40;44.60;;;;;;5027049;28;19922;-81
2023/10/16 13:39:38;;;;;;;;;;;18.50;45.30;;;;;;5027302;28;20045;-81
2023/10/16 13:42:08;;;;;;;;;;;19.00;44.80;;;;;;5026733;28;19909;-81
2023/10/16 13:44:35;;;;;;;;;;;18.60;45.60;;;;;;5025542;28;19909;-81
2023/10/16 13:47:04;;;;;;;;;;;18.60;45.90;;;;;;5026862;28;19925;-82
2023/10/16 13:49:36;;;;;;;;;;;19.10;47.40;;;;;;5026916;28;19920;-81
2023/10/16 13:52:02;;;;;;;;;;;19.00;46.90;;;;;;5023868;28;19913;-81
2023/10/16 13:54:31;;;;;;;;;;;18.70;46.10;;;;;;5016965;28;20453;-81
2023/10/16 13:56:56;;;;;;;;;;;18.50;46.00;;;;;;5026642;28;19909;-81
2023/10/16 13:59:22;;;;;;;;;;;18.40;43.60;;;;;;5026681;28;19909;-81
2023/10/16 14:01:47;;;;;;;;;;;18.60;42.00;;;;;;5026839;28;19909;-81
2023/10/16 14:04:16;;;;;;;;;;;18.40;40.70;;;;;;5026822;28;19909;-82
2023/10/16 14:06:44;;;;;;;;;;;18.60;40.60;;;;;;5026260;28;19963;-81
2023/10/16 14:09:19;;;;;;;;;;;18.30;40.40;;;;;;5025807;28;19963;-81
2023/10/16 14:11:48;;;;;;;;;;;18.30;41.00;;;;;;5026392;28;19909;-81
2023/10/16 14:14:20;;;;;;;;;;;18.50;40.00;;;;;;5026375;28;19909;-82
2023/10/16 14:16:52;;;;;;;;;;;18.50;41.60;;;;;;5022827;28;20035;-81
2023/10/16 14:19:22;;;;;;;;;;;19.00;40.90;;;;;;5026248;28;19916;-82
2023/10/16 14:21:55;;;;;;;;;;;19.10;39.00;;;;;;5025799;28;19916;-81
2023/10/16 14:24:24;;;;;;;;;;;19.30;41.40;;;;;;5026082;28;20345;-81
2023/10/16 14:26:50;;;;;;;;;;;19.40;40.00;;;;;;5026031;28;19921;-80
2023/10/16 14:29:16;;;;;;;;;;;19.70;40.80;;;;;;5024771;28;19909;-81
2023/10/16 14:31:46;;;;;;;;;;;19.60;40.20;;;;;;5024334;28;20359;-81
2023/10/16 14:34:19;;;;;;;;;;;19.60;42.20;;;;;;5026343;28;20498;-80
2023/10/16 14:36:46;;;;;;;;;;;19.60;41.00;;;;;;5024117;28;20764;-81
2023/10/16 14:39:14;;;;;;;;;;;19.60;39.90;;;;;;5025912;28;20534;-81
2023/10/16 14:41:47;;;;;;;;;;;19.70;39.80;;;;;;5026236;28;19916;-81
2023/10/16 14:44:13;;;;;;;;;;;19.70;39.70;;;;;;5022132;28;19960;-81
2023/10/16 14:46:38;;;;;;;;;;;19.40;39.40;;;;;;5025367;28;20024;-82
2023/10/16 14:49:11;;;;;;;;;;;19.60;39.80;;;;;;5025508;28;20641;-81
2023/10/16 14:51:40;;;;;;;;;;;19.70;40.30;;;;;;5022157;28;19917;-83
2023/10/16 14:54:06;;;;;;;;;;;19.90;39.40;;;;;;5025926;28;20031;-83
2023/10/16 14:56:36;;;;;;;;;;;20.00;40.00;;;;;;5023213;28;19921;-82
2023/10/16 14:59:03;;;;;;;;;;;20.00;39.80;;;;;;5023530;28;19913;-82
2023/10/16 15:01:31;;;;;;;;;;;19.90;40.10;;;;;;5027425;28;19909;-84
2023/10/16 15:03:57;;;;;;;;;;;19.80;40.70;;;;;;5025319;28;20016;-83
2023/10/16 15:06:23;;;;;;;;;;;19.90;39.40;;;;;;5024611;28;20027;-83
2023/10/16 15:08:48;;;;;;;;;;;19.90;39.80;;;;;;5024200;28;19949;-84
2023/10/16 15:11:14;;;;;;;;;;;19.80;39.30;;;;;;5055352;28;19917;-84
2023/10/16 15:13:40;;;;;;;;;;;19.80;39.90;;;;;;5024781;28;19909;-83
2023/10/16 15:16:09;;;;;;;;;;;19.70;40.80;;;;;;5025112;28;19916;-83
2023/10/16 15:18:38;;;;;;;;;;;19.70;40.50;;;;;;5025602;28;20244;-83
2023/10/16 15:21:04;;;;;;;;;;;19.50;41.20;;;;;;5024632;28;19913;-83
2023/10/16 15:23:30;;;;;;;;;;;19.40;40.80;;;;;;5025434;28;19909;-82
2023/10/16 15:25:58;;;;;;;;;;;19.50;40.70;;;;;;5024644;28;19920;-84
2023/10/16 15:28:26;;;;;;;;;;;19.50;41.50;;;;;;5021420;28;19920;-83
2023/10/16 15:30:53;;;;;;;;;;;19.40;42.30;;;;;;5012203;28;20035;-83
2023/10/16 15:33:19;;;;;;;;;;;19.30;42.80;;;;;;5035036;28;19920;-84
2023/10/16 15:35:47;;;;;;;;;;;19.30;44.10;;;;;;5025243;28;19913;-83
2023/10/16 15:38:13;;;;;;;;;;;19.30;45.20;;;;;;5052997;28;20015;-84
2023/10/16 15:40:43;;;;;;;;;;;19.30;45.80;;;;;;5023566;28;20015;-84
2023/10/16 15:43:11;;;;;;;;;;;19.30;45.90;;;;;;5024737;28;19909;-84
2023/10/16 15:45:37;;;;;;;;;;;19.20;46.00;;;;;;5022036;28;19921;-82
2023/10/16 15:48:05;;;;;;;;;;;19.20;46.60;;;;;;5018730;28;20505;-82
2023/10/16 15:50:31;;;;;;;;;;;19.10;46.70;;;;;;5023587;28;19971;-82
2023/10/16 15:52:57;;;;;;;;;;;19.00;46.90;;;;;;5023376;28;19913;-82
2023/10/16 15:55:26;;;;;;;;;;;18.90;47.40;;;;;;5022373;28;20399;-83
2023/10/16 15:57:54;;;;;;;;;;;18.90;49.20;;;;;;5023169;28;19913;-83
2023/10/16 16:00:26;;;;;;;;;;;18.90;50.50;;;;;;5022508;28;20360;-84
2023/10/16 16:02:55;;;;;;;;;;;18.90;54.40;;;;;;5023968;28;20707;-83
2023/10/16 16:05:22;;;;;;;;;;;18.80;56.70;;;;;;5018469;28;19932;-82
2023/10/16 16:07:51;;;;;;;;;;;18.50;58.70;;;;;;5023341;28;19913;-83
2023/10/16 16:10:17;;;;;;;;;;;18.40;60.40;;;;;;5023418;28;19917;-82
2023/10/16 16:12:46;;;;;;;;;;;18.30;63.20;;;;;;5023575;28;19992;-83
2023/10/16 16:15:16;;;;;;;;;;;18.20;63.20;;;;;;5023933;28;20018;-84
2023/10/16 16:17:43;;;;;;;;;;;18.20;64.50;;;;;;5021993;28;20806;-85
2023/10/16 16:20:15;;;;;;;;;;;18.20;64.40;;;;;;5021900;28;19920;-84
2023/10/16 16:22:45;;;;;;;;;;;18.10;65.30;;;;;;5020024;28;20706;-84
2023/10/16 16:25:13;;;;;;;;;;;18.10;65.00;;;;;;5013771;28;19982;-82
2023/10/16 16:27:39;;;;;;;;;;;18.00;65.00;;;;;;5027887;28;19921;-83
2023/10/16 16:30:07;;;;;;;;;;;18.10;65.60;;;;;;5023700;28;19920;-83
2023/10/16 16:32:33;;;;;;;;;;;18.10;65.60;;;;;;5023851;28;19909;-83
2023/10/16 16:35:00;;;;;;;;;;;18.10;64.70;;;;;;5022606;28;19913;-83
2023/10/16 16:37:26;;;;;;;;;;;18.20;64.80;;;;;;5023153;28;19917;-83
2023/10/16 16:39:52;;;;;;;;;;;18.20;64.80;;;;;;5023805;28;19916;-84